Solemar — ZCIR3 — position and weather

sailwx.info

Track history (hours):
 
Tides and Currents Weather Stations Pressure Air Temp Water Temp Dewpoint Dewpoint Depression Visibility Wind Speed Wind Dir Waves Ship Positions

Solemar

Last reported at 2014-Aug-28 02:33 UTC. Time now 2014-Sep-01 11:38 UTC.
Position N 37°49' E 023°11'.

Length 62 m; draft 3.5 m.

Type: Pleasure craft. MMSI: 319868000.

Date/timePositionNaut miles runAvg speedWind from/ knotsBaromVisibWave heightAir tempDewpointWater temp
2014-Aug-28 02:33N 37°49' E 023°11'1211.8
2014-Aug-28 01:33N 37°40' E 023°20'1212.1
2014-Aug-28 00:33N 37°35' E 023°34'1212.1
2014-Aug-27 23:33N 37°28' E 023°46'1212.3
2014-Aug-27 22:33N 37°20' E 023°58'1212.2
2014-Aug-27 21:33N 37°12' E 024°10'1312.6
2014-Aug-27 20:31N 37°04' E 024°22'1212.5
2014-Aug-27 19:33N 36°57' E 024°34'1212.2
2014-Aug-27 18:33N 36°52' E 024°48'1312.5
2014-Aug-27 17:34N 36°50' E 025°04'1312.9
2014-Aug-27 16:34N 36°48' E 025°20'1312.7
2014-Aug-27 15:33N 36°46' E 025°35'1212.5
2014-Aug-27 14:33N 36°44' E 025°51'1212.2
2014-Aug-27 13:33N 36°42' E 026°06'1212.2
2014-Aug-27 12:33N 36°40' E 026°21'2712.1
2014-Aug-27 10:22N 36°35' E 026°53'4112.7
2014-Aug-27 07:10N 36°28' E 027°43'  
2014-Aug-23 02:25N 36°39' E 027°24'1512.7
2014-Aug-23 01:16N 36°53' E 027°22'1012.9
2014-Aug-23 00:32N 37°01' E 027°14'7 1.1
2014-Aug-22 18:16N 37°08' E 027°15'2 0.2
2014-Aug-22 07:31N 37°06' E 027°17'1111.6
2014-Aug-22 06:32N 37°10' E 027°04'1313.3
2014-Aug-22 05:33N 37°14' E 026°48'1313.1
2014-Aug-22 04:33N 37°16' E 026°32'1312.8
2014-Aug-22 03:34N 37°17' E 026°16'1313.0
2014-Aug-22 02:34N 37°19' E 025°60'1313.0
2014-Aug-22 01:33N 37°21' E 025°43'1313.3
2014-Aug-22 00:33N 37°23' E 025°27'6 6.1
2014-Aug-21 23:32N 37°25' E 025°19'0 0.0
2014-Aug-21 22:32N 37°25' E 025°19'0 0.0
2014-Aug-21 21:32N 37°25' E 025°19'0 0.0
2014-Aug-21 20:29N 37°25' E 025°19'0 0.0
2014-Aug-21 19:29N 37°25' E 025°19'0 0.0
2014-Aug-21 18:32N 37°25' E 025°19'0 0.0
2014-Aug-21 17:32N 37°25' E 025°19'0 0.0
2014-Aug-21 16:32N 37°25' E 025°19'0 0.0
2014-Aug-21 15:32N 37°25' E 025°19'0 0.0
2014-Aug-21 14:32N 37°25' E 025°19'0 0.0
2014-Aug-21 13:32N 37°25' E 025°19'0 0.0
2014-Aug-21 12:32N 37°25' E 025°19'0 0.0
2014-Aug-21 11:32N 37°25' E 025°19'0 0.1
2014-Aug-21 10:32N 37°25' E 025°19'0 0.0
2014-Aug-21 09:32N 37°25' E 025°19'0 0.1
2014-Aug-21 08:32N 37°25' E 025°19'2 1.6
2014-Aug-21 07:33N 37°23' E 025°19'1312.6
2014-Aug-21 06:34N 37°21' E 025°03'1312.8
2014-Aug-21 05:34N 37°19' E 024°47'1312.9
2014-Aug-21 04:34N 37°17' E 024°31'1312.7
2014-Aug-21 03:34N 37°16' E 024°15'35 3.2
2014-Aug-20 16:29N 37°26' E 023°32'1213.1
2014-Aug-20 15:33N 37°35' E 023°42'1212.5
2014-Aug-20 14:33N 37°47' E 023°47'1 0.7
2014-Aug-20 13:31N 37°48' E 023°46'0 0.0
2014-Aug-20 12:31N 37°48' E 023°46'1 0.5
2014-Aug-20 11:33N 37°47' E 023°46'1111.3
2014-Aug-20 10:33N 37°50' E 023°32'  
Track history (hours):
 
Tides and Currents Weather Stations Pressure Air Temp Water Temp Dewpoint Dewpoint Depression Visibility Wind Speed Wind Dir Waves Ship Positions

Solemar

Last reported at 2014-Aug-28 02:33 UTC. Time now 2014-Sep-01 11:38 UTC.
Position N 37°49' E 023°11'.

Length 62 m; draft 3.5 m.

Type: Pleasure craft. MMSI: 319868000.

Date/timePositionNaut miles runAvg speedWind from/ knotsBaromVisibWave heightAir tempDewpointWater temp
2014-Aug-28 02:33N 37°49' E 023°11'1211.8
2014-Aug-28 01:33N 37°40' E 023°20'1212.1
2014-Aug-28 00:33N 37°35' E 023°34'1212.1
2014-Aug-27 23:33N 37°28' E 023°46'1212.3
2014-Aug-27 22:33N 37°20' E 023°58'1212.2
2014-Aug-27 21:33N 37°12' E 024°10'1312.6
2014-Aug-27 20:31N 37°04' E 024°22'1212.5
2014-Aug-27 19:33N 36°57' E 024°34'1212.2
2014-Aug-27 18:33N 36°52' E 024°48'1312.5
2014-Aug-27 17:34N 36°50' E 025°04'1312.9
2014-Aug-27 16:34N 36°48' E 025°20'1312.7
2014-Aug-27 15:33N 36°46' E 025°35'1212.5
2014-Aug-27 14:33N 36°44' E 025°51'1212.2
2014-Aug-27 13:33N 36°42' E 026°06'1212.2
2014-Aug-27 12:33N 36°40' E 026°21'2712.1
2014-Aug-27 10:22N 36°35' E 026°53'4112.7
2014-Aug-27 07:10N 36°28' E 027°43'  
2014-Aug-23 02:25N 36°39' E 027°24'1512.7
2014-Aug-23 01:16N 36°53' E 027°22'1012.9
2014-Aug-23 00:32N 37°01' E 027°14'7 1.1
2014-Aug-22 18:16N 37°08' E 027°15'2 0.2
2014-Aug-22 07:31N 37°06' E 027°17'1111.6
2014-Aug-22 06:32N 37°10' E 027°04'1313.3
2014-Aug-22 05:33N 37°14' E 026°48'1313.1
2014-Aug-22 04:33N 37°16' E 026°32'1312.8
2014-Aug-22 03:34N 37°17' E 026°16'1313.0
2014-Aug-22 02:34N 37°19' E 025°60'1313.0
2014-Aug-22 01:33N 37°21' E 025°43'1313.3
2014-Aug-22 00:33N 37°23' E 025°27'6 6.1
2014-Aug-21 23:32N 37°25' E 025°19'0 0.0
2014-Aug-21 22:32N 37°25' E 025°19'0 0.0
2014-Aug-21 21:32N 37°25' E 025°19'0 0.0
2014-Aug-21 20:29N 37°25' E 025°19'0 0.0
2014-Aug-21 19:29N 37°25' E 025°19'0 0.0
2014-Aug-21 18:32N 37°25' E 025°19'0 0.0
2014-Aug-21 17:32N 37°25' E 025°19'0 0.0
2014-Aug-21 16:32N 37°25' E 025°19'0 0.0
2014-Aug-21 15:32N 37°25' E 025°19'0 0.0
2014-Aug-21 14:32N 37°25' E 025°19'0 0.0
2014-Aug-21 13:32N 37°25' E 025°19'0 0.0
2014-Aug-21 12:32N 37°25' E 025°19'0 0.0
2014-Aug-21 11:32N 37°25' E 025°19'0 0.1
2014-Aug-21 10:32N 37°25' E 025°19'0 0.0
2014-Aug-21 09:32N 37°25' E 025°19'0 0.1
2014-Aug-21 08:32N 37°25' E 025°19'2 1.6
2014-Aug-21 07:33N 37°23' E 025°19'1312.6
2014-Aug-21 06:34N 37°21' E 025°03'1312.8
2014-Aug-21 05:34N 37°19' E 024°47'1312.9
2014-Aug-21 04:34N 37°17' E 024°31'1312.7
2014-Aug-21 03:34N 37°16' E 024°15'35 3.2
2014-Aug-20 16:29N 37°26' E 023°32'1213.1
2014-Aug-20 15:33N 37°35' E 023°42'1212.5
2014-Aug-20 14:33N 37°47' E 023°47'1 0.7
2014-Aug-20 13:31N 37°48' E 023°46'0 0.0
2014-Aug-20 12:31N 37°48' E 023°46'1 0.5
2014-Aug-20 11:33N 37°47' E 023°46'1111.3
2014-Aug-20 10:33N 37°50' E 023°32'  

Dump ship's entire track history